Time;durP1;ratioP1;P1;durP2;ratioP2;P2;SDS_P1;SDS_P2;PMS_P1;PMS_P2;Temp;Humidity;BMP_temperature;BMP_pressure;BME280_temperature;BME280_humidity;BME280_pressure;Samples;Min_cycle;Max_cycle;Signal;HPM_P1;HPM_P2
2023/11/14 00:01:24;;;;;;;0.30;0.30;;;;;;;5.86;99.93;97109.50;5063125;28;20056;-66
2023/11/14 00:03:51;;;;;;;0.30;0.30;;;;;;;5.26;99.46;97045.25;5045217;28;20049;-66
2023/11/14 00:06:18;;;;;;;0.30;0.30;;;;;;;5.28;100.00;97125.34;5046738;28;20426;-66
2023/11/14 00:08:45;;;;;;;0.30;0.30;;;;;;;5.35;100.00;97125.59;5066755;28;20056;-66
2023/11/14 00:11:12;;;;;;;0.30;0.30;;;;;;;5.44;99.80;97123.59;5066349;28;20052;-66
2023/11/14 00:13:39;;;;;;;0.22;0.22;;;;;;;5.08;98.55;97060.22;5066787;28;20059;-67
2023/11/14 00:16:06;;;;;;;0.30;0.30;;;;;;;5.53;96.94;97127.09;5066688;28;20052;-66
2023/11/14 00:18:33;;;;;;;0.20;0.20;;;;;;;5.50;96.48;97133.25;5066530;28;20550;-67
2023/11/14 00:21:00;;;;;;;0.30;0.30;;;;;;;5.12;96.39;97088.63;5066722;28;20063;-66
2023/11/14 00:23:27;;;;;;;0.30;0.30;;;;;;;5.41;96.31;97135.25;5067264;28;20060;-66
2023/11/14 00:25:53;;;;;;;0.30;0.30;;;;;;;5.46;98.02;97132.31;5066656;28;20048;-66
2023/11/14 00:28:20;;;;;;;0.30;0.30;;;;;;;5.47;97.59;97128.44;5067186;28;20114;-66
2023/11/14 00:30:47;;;;;;;0.30;0.30;;;;;;;5.51;96.82;97143.09;5066476;28;20044;-66
2023/11/14 00:33:13;;;;;;;0.30;0.30;;;;;;;5.34;96.38;97135.78;5048525;28;20060;-66
2023/11/14 00:35:41;;;;;;;0.30;0.30;;;;;;;5.06;96.85;97095.47;5066548;28;20549;-66
2023/11/14 00:38:08;;;;;;;0.30;0.30;;;;;;;5.35;98.05;97136.59;5066657;28;20542;-66
2023/11/14 00:40:36;;;;;;;0.30;0.30;;;;;;;5.38;97.86;97135.91;5065996;28;20048;-66
2023/11/14 00:43:03;;;;;;;0.30;0.30;;;;;;;5.35;97.75;97139.34;5066804;28;20045;-65
2023/11/14 00:45:29;;;;;;;0.30;0.30;;;;;;;5.44;97.78;97134.56;5064433;28;20079;-66
2023/11/14 00:47:56;;;;;;;0.30;0.30;;;;;;;5.49;97.68;97137.13;5066640;28;20052;-66
2023/11/14 00:50:23;;;;;;;0.30;0.30;;;;;;;5.14;97.34;97087.16;5033383;28;20130;-66
2023/11/14 00:52:50;;;;;;;0.30;0.30;;;;;;;5.25;97.13;97118.56;5026386;28;20064;-66
2023/11/14 00:55:17;;;;;;;0.30;0.30;;;;;;;3.42;96.43;96795.25;5013138;28;20053;-66
2023/11/14 00:57:44;;;;;;;0.30;0.30;;;;;;;5.46;96.82;97126.81;5006766;28;20049;-66
2023/11/14 01:00:12;;;;;;;0.30;0.30;;;;;;;5.35;97.00;97114.63;5006157;28;20524;-66
2023/11/14 01:02:39;;;;;;;0.30;0.30;;;;;;;5.34;98.03;97113.03;5005213;28;20096;-66
2023/11/14 01:05:06;;;;;;;0.30;0.30;;;;;;;4.56;97.73;97005.72;5006340;28;20537;-67
2023/11/14 01:07:33;;;;;;;0.30;0.30;;;;;;;5.15;98.54;97098.94;5006278;28;20058;-66
2023/11/14 01:10:00;;;;;;;0.30;0.30;;;;;;;5.22;98.95;97115.69;5006504;28;20492;-67
2023/11/14 01:12:26;;;;;;;0.30;0.30;;;;;;;4.59;97.76;97010.56;5006592;28;20049;-65
2023/11/14 01:14:53;;;;;;;0.30;0.30;;;;;;;5.20;98.76;97117.97;5008335;28;20053;-66
2023/11/14 01:17:20;;;;;;;0.30;0.30;;;;;;;4.78;98.52;97040.28;5025181;28;20409;-66
2023/11/14 01:19:51;;;;;;;0.30;0.30;;;;;;;5.13;97.94;97106.69;5024324;28;20064;-66
2023/11/14 01:22:18;;;;;;;0.30;0.30;;;;;;;4.01;97.16;96928.34;5024524;28;20076;-67
2023/11/14 01:24:45;;;;;;;0.30;0.30;;;;;;;4.93;94.34;97107.50;5025195;28;20045;-66
2023/11/14 01:27:12;;;;;;;0.22;0.22;;;;;;;4.95;94.65;97121.69;5007254;28;20057;-66
2023/11/14 01:29:39;;;;;;;0.30;0.30;;;;;;;4.09;96.01;97017.94;5025340;28;20049;-67
2023/11/14 01:32:06;;;;;;;0.20;0.20;;;;;;;4.80;97.35;97114.84;5025796;28;20049;-66
2023/11/14 01:34:35;;;;;;;0.30;0.30;;;;;;;4.91;96.96;97116.06;5025501;28;20089;-66
2023/11/14 01:37:02;;;;;;;0.30;0.30;;;;;;;4.77;96.69;97126.47;5008108;28;20049;-66
2023/11/14 01:39:31;;;;;;;0.30;0.30;;;;;;;4.79;97.62;97113.22;5025522;28;20507;-66
2023/11/14 01:41:58;;;;;;;0.30;0.30;;;;;;;4.85;98.41;97111.91;5025616;28;20053;-66
2023/11/14 01:44:25;;;;;;;0.30;0.30;;;;;;;4.60;98.31;97057.97;5023993;28;20065;-66
2023/11/14 01:46:55;;;;;;;0.30;0.30;;;;;;;4.78;97.90;97097.06;5007157;28;20501;-67
2023/11/14 01:49:23;;;;;;;0.30;0.30;;;;;;;4.80;98.91;97103.84;5025488;28;20068;-67
2023/11/14 01:51:50;;;;;;;0.30;0.30;;;;;;;5.01;98.86;97082.72;5024926;28;20049;-65
2023/11/14 01:54:17;;;;;;;0.30;0.30;;;;;;;5.08;99.27;97079.44;5024650;28;20060;-67
2023/11/14 01:56:44;;;;;;;0.30;0.30;;;;;;;5.18;98.92;97070.81;5025014;28;20107;-67
2023/11/14 01:59:11;;;;;;;0.30;0.30;;;;;;;5.01;100.00;97065.47;5023474;28;20132;-66
2023/11/14 02:01:38;;;;;;;0.30;0.30;;;;;;;4.94;100.00;97059.69;5024775;28;20057;-66
2023/11/14 02:04:10;;;;;;;0.30;0.30;;;;;;;5.10;100.00;97071.69;5024588;28;20049;-66
2023/11/14 02:06:37;;;;;;;0.30;0.30;;;;;;;4.21;98.80;96911.13;5024467;28;20084;-65
2023/11/14 02:09:07;;;;;;;0.30;0.30;;;;;;;5.13;99.11;97068.28;5024688;28;20144;-65
2023/11/14 02:11:35;;;;;;;0.30;0.30;;;;;;;5.22;99.02;97071.75;5024725;28;20107;-66
2023/11/14 02:14:01;;;;;;;0.20;0.20;;;;;;;5.22;97.30;97074.50;5024598;28;20085;-64
2023/11/14 02:16:48;;;;;;;0.30;0.30;;;;;;;4.00;97.81;96893.06;5024545;28;20215;-65
2023/11/14 02:19:15;;;;;;;0.30;0.30;;;;;;;5.14;98.29;97075.38;5024624;28;20073;-66
2023/11/14 02:21:42;;;;;;;0.30;0.30;;;;;;;5.08;97.98;97087.69;5024231;28;20060;-66
2023/11/14 02:24:16;;;;;;;0.30;0.30;;;;;;;5.07;97.64;97075.09;5024346;28;20053;-66
2023/11/14 02:26:49;;;;;;;0.30;0.30;;;;;;;5.08;97.45;97071.22;5006811;28;20084;-64
2023/11/14 02:29:19;;;;;;;0.30;0.30;;;;;;;4.99;96.57;97073.22;5022780;28;20046;-66
2023/11/14 02:31:47;;;;;;;0.30;0.30;;;;;;;5.01;96.64;97076.44;5006629;28;20437;-65
2023/11/14 02:34:15;;;;;;;0.30;0.30;;;;;;;4.52;95.10;96993.81;5024366;28;20096;-65
2023/11/14 02:36:42;;;;;;;0.30;0.30;;;;;;;4.98;96.14;97077.13;5006770;28;20079;-66
2023/11/14 02:39:10;;;;;;;0.30;0.30;;;;;;;4.95;96.26;97084.06;5024387;28;20165;-65
2023/11/14 02:41:37;;;;;;;0.30;0.30;;;;;;;4.97;96.00;97080.97;5006746;28;20072;-65
2023/11/14 02:44:04;;;;;;;0.30;0.30;;;;;;;4.86;96.29;97041.34;5024522;28;20049;-65
2023/11/14 02:46:31;;;;;;;0.30;0.30;;;;;;;4.96;96.63;97068.41;5024100;28;20068;-65
2023/11/14 02:49:16;;;;;;;0.30;0.30;;;;;;;4.96;98.10;97068.41;5006455;28;20045;-65
2023/11/14 02:51:42;;;;;;;0.28;0.28;;;;;;;4.29;97.65;96984.28;5023711;28;20052;-65
2023/11/14 02:54:09;;;;;;;0.30;0.30;;;;;;;4.64;97.14;97035.03;5019410;28;20121;-65
2023/11/14 02:56:36;;;;;;;0.30;0.30;;;;;;;4.99;95.95;97084.19;5006062;28;20240;-67
2023/11/14 02:59:04;;;;;;;0.30;0.30;;;;;;;4.59;95.81;97043.47;5006465;28;20053;-65
2023/11/14 03:01:31;;;;;;;0.30;0.30;;;;;;;4.93;96.66;97080.88;5023983;28;20183;-65
2023/11/14 03:03:58;;;;;;;0.30;0.30;;;;;;;4.95;96.99;97072.28;5024053;28;20050;-66
2023/11/14 03:06:25;;;;;;;0.30;0.30;;;;;;;5.01;97.26;97074.47;5023463;28;20053;-66
2023/11/14 03:08:51;;;;;;;0.30;0.30;;;;;;;4.73;97.12;97020.47;5023535;28;20583;-66
2023/11/14 03:11:18;;;;;;;0.30;0.30;;;;;;;4.53;97.68;97017.38;5006021;28;20069;-64
2023/11/14 03:13:45;;;;;;;0.30;0.30;;;;;;;4.63;98.20;97024.41;5023541;28;20066;-64
2023/11/14 03:16:13;;;;;;;0.30;0.30;;;;;;;5.07;97.97;97080.59;5023623;28;20111;-65
2023/11/14 03:18:40;;;;;;;0.30;0.30;;;;;;;4.69;98.00;97045.81;5023887;28;20125;-65
2023/11/14 03:21:07;;;;;;;0.30;0.30;;;;;;;4.49;97.13;97026.56;5023733;28;20057;-66
2023/11/14 03:23:34;;;;;;;0.30;0.30;;;;;;;4.85;97.39;97106.41;5023563;28;20453;-64
2023/11/14 03:26:00;;;;;;;0.25;0.25;;;;;;;4.76;97.08;97080.16;5023575;28;20547;-65
2023/11/14 03:28:27;;;;;;;0.30;0.30;;;;;;;4.39;97.70;97049.69;5006459;28;20492;-65
2023/11/14 03:30:54;;;;;;;0.30;0.30;;;;;;;4.58;97.37;97085.72;5023770;28;20072;-65
2023/11/14 03:33:20;;;;;;;0.30;0.30;;;;;;;4.68;97.47;97111.19;5023979;28;20064;-65
2023/11/14 03:35:47;;;;;;;0.30;0.30;;;;;;;4.75;96.86;97108.72;5023424;28;20053;-65
2023/11/14 03:38:14;;;;;;;0.30;0.30;;;;;;;4.68;97.44;97110.03;5023295;28;20443;-65
2023/11/14 03:40:41;;;;;;;0.30;0.30;;;;;;;4.69;97.78;97108.91;5023995;28;20440;-66
2023/11/14 03:43:08;;;;;;;0.28;0.28;;;;;;;4.64;98.40;97117.34;5027386;28;20136;-65
2023/11/14 03:45:35;;;;;;;0.30;0.30;;;;;;;4.66;98.53;97115.06;5027344;28;20053;-65
2023/11/14 03:48:02;;;;;;;0.30;0.30;;;;;;;4.26;99.12;97067.19;5009686;28;20136;-65
2023/11/14 03:50:29;;;;;;;0.20;0.20;;;;;;;4.73;98.75;97119.25;5027422;28;20520;-65
2023/11/14 03:52:55;;;;;;;0.30;0.30;;;;;;;4.34;98.54;97052.63;5009625;28;20045;-64
2023/11/14 03:55:22;;;;;;;0.30;0.30;;;;;;;4.77;98.64;97117.44;5016046;28;20129;-65
2023/11/14 03:57:49;;;;;;;0.30;0.30;;;;;;;4.89;97.45;97112.03;5006962;28;20050;-65
2023/11/14 04:00:16;;;;;;;0.30;0.30;;;;;;;4.87;98.13;97120.59;5007375;28;20050;-64
2023/11/14 04:02:43;;;;;;;0.30;0.30;;;;;;;4.92;98.07;97128.63;5007557;28;20454;-65
2023/11/14 04:05:10;;;;;;;0.30;0.30;;;;;;;4.52;98.25;97065.09;5007063;28;20559;-64
2023/11/14 04:07:37;;;;;;;0.30;0.30;;;;;;;4.93;98.35;97123.97;5005396;28;20646;-64
2023/11/14 04:10:07;;;;;;;0.30;0.30;;;;;;;3.76;98.41;96942.16;5007424;28;20076;-64
2023/11/14 04:12:34;;;;;;;0.20;0.20;;;;;;;4.87;98.65;97155.47;5008586;28;20050;-63
2023/11/14 04:15:01;;;;;;;0.30;0.30;;;;;;;4.89;99.87;97133.97;5009164;28;20062;-64
2023/11/14 04:17:28;;;;;;;0.30;0.30;;;;;;;4.28;98.82;97088.78;5026201;28;20056;-64
2023/11/14 04:19:55;;;;;;;0.30;0.30;;;;;;;4.80;98.73;97125.00;5026410;28;20563;-65
2023/11/14 04:22:21;;;;;;;0.30;0.30;;;;;;;4.89;99.00;97128.50;5037392;28;20479;-66
2023/11/14 04:24:48;;;;;;;0.20;0.20;;;;;;;4.17;98.43;97123.97;5066519;28;20519;-65
2023/11/14 04:27:16;;;;;;;0.30;0.30;;;;;;;4.05;98.93;97131.25;5048219;28;20067;-66
2023/11/14 04:29:43;;;;;;;0.30;0.30;;;;;;;4.12;99.29;97126.91;5066406;28;20059;-66
2023/11/14 04:32:10;;;;;;;0.20;0.20;;;;;;;4.00;99.54;97117.75;5066675;28;20048;-65
2023/11/14 04:34:37;;;;;;;0.30;0.30;;;;;;;4.21;99.40;97122.19;5038318;28;20224;-66
2023/11/14 04:37:04;;;;;;;0.30;0.30;;;;;;;3.98;99.21;97071.47;5065333;28;20090;-65
2023/11/14 04:39:31;;;;;;;0.30;0.30;;;;;;;4.23;99.18;97128.16;5066032;28;20056;-66
2023/11/14 04:41:58;;;;;;;0.25;0.25;;;;;;;4.23;99.30;97114.44;5055404;28;20060;-66
2023/11/14 04:44:25;;;;;;;0.30;0.30;;;;;;;4.36;99.50;97115.38;5048635;28;20143;-66
2023/11/14 04:46:52;;;;;;;0.30;0.30;;;;;;;4.42;99.29;97125.84;5066393;28;20060;-65
2023/11/14 04:49:19;;;;;;;0.20;0.20;;;;;;;4.49;98.75;97120.63;5048793;28;20052;-66
2023/11/14 04:51:45;;;;;;;0.30;0.30;;;;;;;4.40;99.03;97108.91;5065550;28;20064;-65
2023/11/14 04:54:12;;;;;;;0.30;0.30;;;;;;;4.38;99.35;97097.44;5047434;28;20044;-66
2023/11/14 04:56:39;;;;;;;0.30;0.30;;;;;;;4.41;98.35;97091.28;5066226;28;20060;-65
2023/11/14 04:59:06;;;;;;;0.30;0.30;;;;;;;4.42;98.13;97087.44;5065944;28;20056;-64
2023/11/14 05:01:33;;;;;;;0.30;0.30;;;;;;;4.05;97.34;97038.88;5065659;28;20131;-65
2023/11/14 05:03:59;;;;;;;0.30;0.30;;;;;;;4.38;98.08;97081.00;5065970;28;20048;-65
2023/11/14 05:06:27;;;;;;;0.30;0.30;;;;;;;4.42;98.40;97081.97;5065365;28;20056;-65
2023/11/14 05:08:54;;;;;;;0.30;0.30;;;;;;;4.45;98.13;97094.19;5064551;28;20055;-66
2023/11/14 05:11:21;;;;;;;0.30;0.30;;;;;;;4.40;97.20;97067.75;5064979;28;20472;-66
2023/11/14 05:13:47;;;;;;;0.30;0.30;;;;;;;4.50;97.22;97094.78;5065333;28;20332;-65
2023/11/14 05:16:15;;;;;;;0.30;0.30;;;;;;;4.19;98.28;97104.44;5065446;28;20056;-64
2023/11/14 05:18:50;;;;;;;0.30;0.30;;;;;;;4.47;98.12;97095.47;5065219;28;20054;-65
2023/11/14 05:21:17;;;;;;;0.30;0.30;;;;;;;4.55;98.95;97096.56;5063824;28;20504;-65
2023/11/14 05:23:43;;;;;;;0.20;0.20;;;;;;;4.51;98.47;97079.16;5065147;28;20085;-66
2023/11/14 05:26:10;;;;;;;0.30;0.30;;;;;;;4.62;98.43;97097.66;5047155;28;20076;-66
2023/11/14 05:28:38;;;;;;;0.30;0.30;;;;;;;4.59;98.57;97103.00;5047914;28;20142;-66
2023/11/14 05:31:05;;;;;;;0.30;0.30;;;;;;;4.69;98.32;97114.38;5064022;28;20123;-65
2023/11/14 05:33:32;;;;;;;0.20;0.20;;;;;;;4.66;97.62;97109.56;5065384;28;20048;-65
2023/11/14 05:35:58;;;;;;;0.30;0.30;;;;;;;4.68;97.29;97099.06;5063729;28;20048;-64
2023/11/14 05:38:27;;;;;;;0.30;0.30;;;;;;;4.52;96.43;97098.03;5063769;28;20076;-66
2023/11/14 05:40:55;;;;;;;0.30;0.30;;;;;;;4.36;96.30;97044.88;5062270;28;20442;-67
2023/11/14 05:43:24;;;;;;;0.20;0.20;;;;;;;4.34;96.45;97052.63;5064142;28;20045;-67
2023/11/14 05:45:51;;;;;;;0.30;0.30;;;;;;;4.91;97.55;97115.25;5063745;28;20499;-65
2023/11/14 05:48:19;;;;;;;0.30;0.30;;;;;;;3.16;96.24;96802.81;5064011;28;20052;-66
2023/11/14 05:50:47;;;;;;;0.30;0.30;;;;;;;4.94;96.98;97070.66;5063343;28;20049;-67
2023/11/14 05:53:15;;;;;;;0.30;0.30;;;;;;;5.02;96.46;97058.81;5064891;28;20044;-65
2023/11/14 05:55:42;;;;;;;0.30;0.30;;;;;;;5.09;97.40;97045.38;5043523;28;20048;-65
2023/11/14 05:58:10;;;;;;;0.30;0.30;;;;;;;5.66;96.16;97110.31;5045332;28;20128;-66
2023/11/14 06:00:36;;;;;;;0.30;0.30;;;;;;;5.79;96.08;97113.91;5043024;28;20069;-66
2023/11/14 06:03:03;;;;;;;0.30;0.30;;;;;;;6.01;94.07;97117.13;5046771;28;20052;-66
2023/11/14 06:05:30;;;;;;;0.30;0.30;;;;;;;5.99;93.96;97113.13;5046904;28;20061;-65
2023/11/14 06:07:57;;;;;;;0.30;0.30;;;;;;;5.73;94.17;97043.81;5046517;28;20044;-64
2023/11/14 06:10:24;;;;;;;0.30;0.30;;;;;;;6.23;94.01;97132.41;5045339;28;20110;-65
2023/11/14 06:12:51;;;;;;;0.40;0.40;;;;;;;6.46;92.86;97133.63;5063948;28;20090;-65
2023/11/14 06:15:18;;;;;;;0.30;0.30;;;;;;;6.59;93.27;97197.72;5063933;28;20136;-66
2023/11/14 06:17:45;;;;;;;0.30;0.30;;;;;;;6.59;91.87;97137.97;5064119;28;20056;-66
2023/11/14 06:20:14;;;;;;;0.40;0.40;;;;;;;6.69;93.19;97132.03;5046559;28;20052;-66
2023/11/14 06:22:41;;;;;;;0.40;0.40;;;;;;;6.86;93.31;97128.25;5064205;28;20484;-65
2023/11/14 06:25:08;;;;;;;0.30;0.30;;;;;;;7.09;93.49;97129.38;5042618;28;20117;-65
2023/11/14 06:27:35;;;;;;;0.30;0.30;;;;;;;7.22;92.17;97131.78;5063092;28;20052;-65
2023/11/14 06:30:02;;;;;;;0.40;0.40;;;;;;;7.01;92.11;97081.56;5063789;28;20586;-65
2023/11/14 06:32:29;;;;;;;0.35;0.35;;;;;;;7.37;90.52;97142.09;5045968;28;20056;-66
2023/11/14 06:34:56;;;;;;;0.40;0.40;;;;;;;7.35;91.12;97097.56;5064147;28;20066;-66
2023/11/14 06:37:23;;;;;;;0.40;0.40;;;;;;;7.62;91.72;97110.56;5061166;28;20098;-67
2023/11/14 06:39:50;;;;;;;0.40;0.40;;;;;;;7.79;89.43;97125.22;5038351;28;20470;-63
2023/11/14 06:42:16;;;;;;;0.40;0.40;;;;;;;7.93;87.42;97142.16;5048461;28;20466;-65
2023/11/14 06:44:44;;;;;;;0.40;0.40;;;;;;;8.09;88.15;97151.31;5061449;28;20076;-66
2023/11/14 06:47:12;;;;;;;0.40;0.40;;;;;;;7.66;86.45;97075.66;5042044;28;20432;-61
2023/11/14 06:49:39;;;;;;;0.40;0.40;;;;;;;7.55;89.02;97107.63;5059913;28;20059;-61
2023/11/14 06:52:06;;;;;;;0.45;0.45;;;;;;;8.17;88.41;97147.59;5060750;28;20094;-59
2023/11/14 06:54:33;;;;;;;0.40;0.40;;;;;;;6.97;87.69;96907.16;5060319;28;20056;-61
2023/11/14 06:57:00;;;;;;;0.40;0.40;;;;;;;8.34;87.19;97115.00;5058350;28;20044;-61
2023/11/14 06:59:30;;;;;;;0.40;0.40;;;;;;;8.80;85.40;97121.69;5060773;28;20052;-61
2023/11/14 07:01:57;;;;;;;0.40;0.40;;;;;;;8.67;84.62;97078.75;5059154;28;20072;-61
2023/11/14 07:04:24;;;;;;;0.50;0.50;;;;;;;9.04;84.10;97114.00;5060364;28;20056;-63
2023/11/14 07:06:50;;;;;;;0.50;0.50;;;;;;;9.07;83.93;97098.69;5055787;28;20053;-63
2023/11/14 07:09:21;;;;;;;0.50;0.50;;;;;;;8.78;83.07;97035.63;5060921;28;20045;-65
2023/11/14 07:11:49;;;;;;;0.40;0.40;;;;;;;9.50;82.88;97134.41;5061198;28;20520;-62
2023/11/14 07:14:21;;;;;;;0.40;0.40;;;;;;;9.65;82.95;97119.75;5061790;28;20427;-61
2023/11/14 07:16:48;;;;;;;0.50;0.50;;;;;;;9.43;81.86;97040.25;5063292;28;20135;-65
2023/11/14 07:19:17;;;;;;;0.50;0.50;;;;;;;9.81;81.56;97073.47;5060461;28;20045;-63
2023/11/14 07:21:46;;;;;;;0.50;0.50;;;;;;;9.93;81.27;97070.53;5064841;28;20044;-67
2023/11/14 07:24:14;;;;;;;0.50;0.50;;;;;;;10.26;81.12;97067.22;5061502;28;20053;-61
2023/11/14 07:26:43;;;;;;;0.47;0.47;;;;;;;10.79;81.28;97135.47;5060570;28;20081;-64
2023/11/14 07:29:12;;;;;;;0.50;0.50;;;;;;;11.05;80.19;97093.94;5044171;28;20048;-59
2023/11/14 07:31:39;;;;;;;0.50;0.50;;;;;;;11.26;78.35;97085.13;5063557;28;20075;-62
2023/11/14 07:34:07;;;;;;;0.50;0.50;;;;;;;11.34;77.97;97061.88;5063502;28;20048;-64
2023/11/14 07:36:34;;;;;;;0.50;0.50;;;;;;;11.78;76.73;97098.97;5045139;28;20063;-62
2023/11/14 07:39:01;;;;;;;0.50;0.50;;;;;;;11.55;74.29;97084.38;5045652;28;20147;-63
2023/11/14 07:41:28;;;;;;;0.50;0.50;;;;;;;11.70;75.61;97102.84;5066395;28;20052;-61
2023/11/14 07:43:54;;;;;;;0.50;0.50;;;;;;;11.26;76.14;97074.84;5065754;28;20162;-69
2023/11/14 07:46:22;;;;;;;0.50;0.50;;;;;;;10.69;74.85;96967.09;5066247;28;20319;-70
2023/11/14 07:48:49;;;;;;;0.50;0.50;;;;;;;11.71;74.98;97104.44;5065045;28;20052;-63
2023/11/14 07:51:16;;;;;;;0.50;0.50;;;;;;;11.74;77.13;97098.16;5066530;28;20062;-64
2023/11/14 07:53:46;;;;;;;0.55;0.55;;;;;;;11.68;76.36;97081.00;5065232;28;20106;-70
2023/11/14 07:56:14;;;;;;;0.52;0.52;;;;;;;11.66;76.60;97077.03;5047144;28;20056;-67
2023/11/14 07:58:41;;;;;;;0.50;0.50;;;;;;;11.67;75.68;97042.53;5064372;28;20114;-63
2023/11/14 08:01:09;;;;;;;0.52;0.52;;;;;;;11.85;73.50;97049.94;5045934;28;20407;-63
2023/11/14 08:03:36;;;;;;;0.47;0.47;;;;;;;11.93;73.02;97045.25;5064190;28;20135;-65
2023/11/14 08:06:04;;;;;;;0.50;0.50;;;;;;;12.43;72.03;97086.28;5063793;28;20055;-63
2023/11/14 08:08:31;;;;;;;0.52;0.52;;;;;;;12.67;70.85;97102.41;5063953;28;20510;-62
2023/11/14 08:10:58;;;;;;;0.60;0.60;;;;;;;12.80;71.76;97095.38;5045202;28;20524;-61
2023/11/14 08:13:25;;;;;;;0.50;0.50;;;;;;;12.42;71.03;97023.56;5056872;28;20498;-59
2023/11/14 08:15:52;;;;;;;0.52;0.52;;;;;;;13.19;70.45;97074.28;5045185;28;20451;-60
2023/11/14 08:18:19;;;;;;;0.60;0.60;;;;;;;13.10;69.72;97054.31;5028273;28;20060;-59
2023/11/14 08:20:46;;;;;;;0.50;0.50;;;;;;;13.12;68.79;97032.50;5028419;28;20522;-62
2023/11/14 08:23:12;;;;;;;0.60;0.60;;;;;;;13.46;67.40;97050.63;5042116;28;20430;-66
2023/11/14 08:25:39;;;;;;;0.57;0.57;;;;;;;13.03;68.56;97093.22;5026819;28;20053;-61
2023/11/14 08:28:07;;;;;;;0.60;0.60;;;;;;;12.64;69.47;97085.69;5030722;28;20045;-67
2023/11/14 08:30:37;;;;;;;0.50;0.50;;;;;;;13.00;70.21;97087.59;5027729;28;20155;-60
2023/11/14 08:33:04;;;;;;;0.60;0.60;;;;;;;13.04;69.10;97050.31;5046008;28;20412;-61
2023/11/14 08:35:31;;;;;;;0.60;0.60;;;;;;;13.66;67.37;97076.97;5027646;28;20063;-60
2023/11/14 08:37:59;;;;;;;0.60;0.60;;;;;;;13.84;65.76;97070.69;5044933;28;20045;-63
2023/11/14 08:40:39;;;;;;;0.70;0.70;;;;;;;13.96;64.17;97034.16;5043705;28;20060;-64
2023/11/14 08:43:06;;;;;;;0.60;0.60;;;;;;;14.21;64.29;97040.59;5045478;28;20041;-62
2023/11/14 08:45:35;;;;;;;0.60;0.60;;;;;;;14.58;62.60;97055.84;5027568;28;20055;-59
2023/11/14 08:48:03;;;;;;;0.60;0.60;;;;;;;14.69;59.67;97061.41;5045160;28;20048;-65
2023/11/14 08:50:30;;;;;;;0.60;0.60;;;;;;;14.66;59.54;97028.75;5045846;28;20075;-64
2023/11/14 08:52:57;;;;;;;0.60;0.60;;;;;;;15.06;59.47;97057.03;5047694;28;20415;-62
2023/11/14 08:55:24;;;;;;;0.60;0.60;;;;;;;15.23;60.25;97055.44;5045363;28;20579;-63
2023/11/14 08:57:50;;;;;;;0.60;0.60;;;;;;;15.11;59.07;97000.06;5027445;28;20055;-65
2023/11/14 09:00:18;;;;;;;0.70;0.70;;;;;;;15.63;57.84;97043.84;5040643;28;20233;-62
2023/11/14 09:02:45;;;;;;;0.60;0.60;;;;;;;15.22;58.07;97020.38;5045053;28;20053;-67
2023/11/14 09:05:12;;;;;;;0.60;0.60;;;;;;;15.66;57.24;97031.06;5045173;28;20044;-64
2023/11/14 09:07:39;;;;;;;0.70;0.70;;;;;;;15.62;55.98;97025.47;5003491;28;20050;-63
2023/11/14 09:10:07;;;;;;;0.70;0.70;;;;;;;14.67;56.65;97010.81;5044458;28;20063;-67
2023/11/14 09:12:33;;;;;;;0.60;0.60;;;;;;;14.93;57.62;97060.63;5043105;28;20049;-63
2023/11/14 09:15:00;;;;;;;0.60;0.60;;;;;;;15.07;54.93;97035.53;5061631;28;20099;-66
2023/11/14 09:17:27;;;;;;;0.65;0.65;;;;;;;15.26;54.52;97035.09;5062338;28;20055;-69
2023/11/14 09:19:55;;;;;;;0.65;0.65;;;;;;;15.11;54.20;97022.38;5063615;28;20143;-62
2023/11/14 09:22:25;;;;;;;0.63;0.63;;;;;;;15.66;55.36;97043.03;5063087;28;20125;-64
2023/11/14 09:24:53;;;;;;;0.65;0.65;;;;;;;15.80;55.95;97045.78;5060590;28;20052;-66
2023/11/14 09:27:22;;;;;;;0.70;0.70;;;;;;;15.30;55.35;97040.69;5064323;28;20052;-63
2023/11/14 09:29:50;;;;;;;0.60;0.60;;;;;;;15.37;55.31;97052.63;5065152;28;20503;-65
2023/11/14 09:32:23;;;;;;;0.65;0.65;;;;;;;15.60;54.74;97039.03;5062785;28;20106;-65
2023/11/14 09:34:50;;;;;;;0.60;0.60;;;;;;;16.07;54.02;97024.53;5063142;28;20044;-62
2023/11/14 09:37:17;;;;;;;0.70;0.70;;;;;;;14.36;52.10;96747.66;5045366;28;20049;-61
2023/11/14 09:39:44;;;;;;;0.70;0.70;;;;;;;16.41;51.61;97011.53;5063697;28;20687;-61
2023/11/14 09:42:11;;;;;;;0.70;0.70;;;;;;;16.82;51.80;96996.91;5063967;28;20048;-64
2023/11/14 09:44:39;;;;;;;0.70;0.70;;;;;;;16.00;49.43;96901.59;5064052;28;20533;-63
2023/11/14 09:47:10;;;;;;;0.70;0.70;;;;;;;16.85;50.08;96979.28;5064266;28;20118;-65
2023/11/14 09:49:38;;;;;;;0.70;0.70;;;;;;;17.03;50.37;96951.94;5064402;28;20084;-63
2023/11/14 09:52:07;;;;;;;0.80;0.80;;;;;;;17.34;49.76;96950.84;5046689;28;20061;-63
2023/11/14 09:54:34;;;;;;;0.70;0.70;;;;;;;17.19;49.30;96855.00;5063610;28;20498;-61
2023/11/14 09:57:04;;;;;;;0.70;0.70;;;;;;;17.18;50.15;96831.00;5064595;28;20052;-63
2023/11/14 09:59:35;;;;;;;0.70;0.70;;;;;;;17.76;50.04;96872.69;5063571;28;20056;-63
2023/11/14 10:02:03;;;;;;;0.73;0.73;;;;;;;18.29;48.36;96916.75;5062156;28;20513;-63
2023/11/14 10:04:30;;;;;;;0.80;0.80;;;;;;;18.18;45.89;96898.53;5062029;28;20106;-63
2023/11/14 10:06:57;;;;;;;0.80;0.80;;;;;;;18.27;46.48;96899.59;5061962;28;20051;-63
2023/11/14 10:09:25;;;;;;;0.70;0.70;;;;;;;17.85;46.65;96830.13;5062271;28;20052;-61
2023/11/14 10:11:53;;;;;;;0.80;0.80;;;;;;;18.42;46.62;96909.38;5062364;28;20064;-63
2023/11/14 10:14:46;;;;;;;0.70;0.70;;;;;;;18.54;45.09;96916.41;5061549;28;20091;-63
2023/11/14 10:17:16;;;;;;;0.75;0.75;;;;;;;18.35;46.25;96909.47;5061810;28;20044;-64
2023/11/14 10:20:00;;;;;;;0.75;0.75;;;;;;;18.20;46.03;96894.06;5043957;28;20060;-64
2023/11/14 10:22:27;;;;;;;0.82;0.82;;;;;;;18.47;45.88;96892.06;5057328;28;20048;-63
2023/11/14 10:24:54;;;;;;;0.80;0.80;;;;;;;18.49;45.77;96869.22;5044038;28;20864;-60
2023/11/14 10:27:36;;;;;;;0.70;0.70;;;;;;;18.63;46.62;96881.00;5059935;28;20583;-66
2023/11/14 10:30:03;;;;;;;0.70;0.70;;;;;;;17.91;47.63;96752.75;5061884;28;20052;-68
2023/11/14 10:32:30;;;;;;;0.70;0.70;;;;;;;18.50;46.28;96801.44;5061954;28;20048;-68
2023/11/14 10:35:15;;;;;;;0.80;0.80;;;;;;;18.93;45.65;96864.00;5061361;28;20044;-63
2023/11/14 10:37:42;;;;;;;0.88;0.88;;;;;;;19.01;44.79;96873.88;5061980;28;20049;-63
2023/11/14 10:40:10;;;;;;;0.77;0.77;;;;;;;18.70;44.00;96790.28;5060655;28;20049;-68
2023/11/14 10:42:37;;;;;;;0.70;0.70;;;;;;;19.20;43.75;96836.63;5061785;28;20058;-65
2023/11/14 10:45:09;;;;;;;0.80;0.80;;;;;;;18.84;43.05;96802.00;5051352;28;20148;-69
2023/11/14 10:47:38;;;;;;;0.70;0.70;;;;;;;19.39;43.21;96855.47;5076050;28;20061;-68
2023/11/14 10:50:08;;;;;;;0.80;0.80;;;;;;;19.54;43.35;96842.75;5061211;28;20159;-68
2023/11/14 10:52:38;;;;;;;0.70;0.70;;;;;;;19.53;42.84;96827.13;5052432;28;20125;-67
2023/11/14 10:55:06;;;;;;;0.80;0.80;;;;;;;19.67;42.97;96825.19;5061976;28;20072;-64
2023/11/14 10:57:36;;;;;;;0.77;0.77;;;;;;;19.96;43.66;96840.22;5061205;28;20059;-64
2023/11/14 11:00:10;;;;;;;0.80;0.80;;;;;;;19.96;42.98;96809.28;5057217;28;20048;-65
2023/11/14 11:02:39;;;;;;;0.80;0.80;;;;;;;20.07;42.44;96784.50;5061520;28;20126;-64
2023/11/14 11:05:08;;;;;;;0.80;0.80;;;;;;;20.17;42.73;96806.00;5061173;28;20044;-64
2023/11/14 11:07:45;;;;;;;0.80;0.80;;;;;;;20.14;41.63;96767.50;5055948;28;20556;-64
2023/11/14 11:10:12;;;;;;;0.80;0.80;;;;;;;20.33;41.76;96828.50;5054771;28;20051;-61
2023/11/14 11:12:40;;;;;;;0.77;0.77;;;;;;;19.89;40.19;96781.31;5052401;28;20754;-63
2023/11/14 11:15:10;;;;;;;0.80;0.80;;;;;;;19.77;39.46;96785.63;5061067;28;20053;-63
2023/11/14 11:17:44;;;;;;;0.80;0.80;;;;;;;19.79;39.51;96790.81;5052751;28;20106;-68
2023/11/14 11:20:24;;;;;;;0.80;0.80;;;;;;;19.63;39.50;96780.34;5061146;28;20091;-62
2023/11/14 11:23:08;;;;;;;0.80;0.80;;;;;;;19.21;40.24;96686.53;5061275;28;20045;-68
2023/11/14 11:25:36;;;;;;;0.70;0.70;;;;;;;20.09;39.83;96779.25;5062933;28;20511;-67
2023/11/14 11:28:21;;;;;;;0.80;0.80;;;;;;;20.44;40.72;96755.84;5037798;28;20084;-62
2023/11/14 11:31:23;;;;;;;0.90;0.90;;;;;;;20.42;41.41;96755.53;5062917;28;20575;-61
2023/11/14 11:33:51;;;;;;;0.80;0.80;;;;;;;19.60;40.94;96645.53;5062833;28;20053;-68
2023/11/14 11:36:21;;;;;;;0.85;0.85;;;;;;;20.40;41.39;96755.97;5062261;28;20511;-68
2023/11/14 11:39:10;;;;;;;0.80;0.80;;;;;;;20.52;41.97;96751.63;5040900;28;20091;-68
2023/11/14 11:41:55;;;;;;;0.90;0.90;;;;;;;20.41;40.89;96739.84;5024410;28;20048;-67
2023/11/14 11:44:35;;;;;;;0.90;0.90;;;;;;;20.72;39.91;96772.00;5057900;28;20048;-62